Celebrity Silhouette — 9HA2583 — position and weather

sailwx.info

Track history (hours):
 
Tides and Currents Weather Stations Pressure Air Temp Water Temp Dewpoint Dewpoint Depression Visibility Wind Speed Wind Dir Waves Ship Positions

Celebrity Silhouette

Last reported at 2019-May-20 10:00 UTC. Time now 2019-May-20 16:48 UTC.
Position N 54°12' E 004°48'.

Length 318 m; draft 8.6 m.

Type: Passenger vessel. MMSI: 248939000.

Wind from 320 at 23 knots

Barometer 1012.5 mb
Air temperature 10.0 ° C
Visibility: greater than 5.4 NM
Dewpoint 9.3 ° C
Water temperature 12.0 ° C

Date/timePositionNaut miles runAvg speedWind from/ knotsBaromVisibWave heightAir tempDewpointWater temp
2019-May-20 10:00N 54°12' E 004°48'3919.4 320 / 231012.5 5.4 10.0 9.312.0
2019-May-20 08:00N 53°42' E 004°06'2622.3 350 / 251009.3 0.1 10.0 7.911.0
2019-May-20 06:49N 53°21' E 003°38'620.0
2019-May-20 06:30N 53°16' E 003°34'1020.0
2019-May-20 06:00N 53°07' E 003°28'1020.3
2019-May-20 05:30N 52°57' E 003°22'1020.6
2019-May-20 05:01N 52°48' E 003°16'1120.7
2019-May-20 04:30N 52°38' E 003°07'1021.1
2019-May-20 04:00N 52°29' E 002°59'3193.9
2019-May-20 04:00N 52°30' E 002°54'1021.6 340 / 241009.6 2.2 9.0 12.1
2019-May-20 03:30N 52°20' E 002°50'1121.7
2019-May-20 03:00N 52°10' E 002°42'1121.5
2019-May-20 02:31N 51°60' E 002°39'1121.3
2019-May-20 02:00N 51°49' E 002°37'1221.5
2019-May-20 01:28N 51°40' E 002°26'1021.5
2019-May-20 01:01N 51°32' E 002°15'1121.7
2019-May-20 00:31N 51°24' E 002°04'1122.0
2019-May-20 00:01N 51°16' E 001°52'12712.5
2019-May-20 00:00N 51°06' E 001°42'1 2.5 010 / 111014.510.8 10.0 8.513.0
2019-May-19 23:31N 51°07' E 001°42'1122.2
2019-May-19 23:01N 50°58' E 001°31'1121.5
2019-May-19 22:30N 50°49' E 001°24'1120.8
2019-May-19 22:00N 50°40' E 001°15'1121.5
2019-May-19 21:29N 50°33' E 001°01'1121.6
2019-May-19 20:59N 50°29' E 000°45'2424.0
2019-May-19 20:00N 50°18' E 000°12'5258.2 300 / 51012.0 2.2 12.0 8.912.7
2019-May-19 19:58N 50°23' E 000°11'1021.3
2019-May-19 19:30N 50°22' W 000°05'1221.7
2019-May-19 18:58N 50°28' W 000°20'1021.3
2019-May-19 18:30N 50°32' W 000°34'1121.1
2019-May-19 18:00N 50°38' W 000°48'4299.6
2019-May-19 18:00N 50°36' W 000°42'1225.5 250 / 161014.5 5.4 13.3 13.4
2019-May-19 17:30N 50°42' W 000°59'714.5
2019-May-19 17:00N 50°46' W 001°09'612.6
2019-May-19 16:30N 50°48' W 001°18'4 8.7
2019-May-19 16:00N 50°52' W 001°22'3 6.3
2019-May-19 15:30N 50°54' W 001°25'0 0.0
2019-May-19 15:00N 50°54' W 001°25'0 0.0
2019-May-19 14:30N 50°54' W 001°25'0 0.0
2019-May-19 13:54N 50°54' W 001°25'0 0.0
2019-May-19 13:30N 50°54' W 001°25'0 0.0
2019-May-19 13:00N 50°54' W 001°25'0 0.0
2019-May-19 12:30N 50°54' W 001°25'0 0.0
2019-May-19 12:00N 50°54' W 001°25'0 0.0
2019-May-19 11:30N 50°54' W 001°25'611.7
2019-May-19 11:00N 50°48' W 001°24'6159.3 060 / 91013.5 16.0 7.515.0
2019-May-19 10:57N 50°54' W 001°25'0 0.0
2019-May-19 10:30N 50°54' W 001°25'0 0.0
2019-May-19 10:00N 50°54' W 001°25'040.0
2019-May-19 10:00N 50°54' W 001°24'0 1.0 020 / 71010.310.8 16.6 9.515.3
2019-May-19 09:30N 50°54' W 001°25'0 0.0
2019-May-19 08:57N 50°54' W 001°25'0 0.0
2019-May-19 08:29N 50°54' W 001°25'0 0.0
2019-May-19 07:59N 50°54' W 001°25'0 0.0
2019-May-19 07:26N 50°54' W 001°25'0 0.0
2019-May-19 06:58N 50°54' W 001°25'0 0.0
2019-May-19 06:28N 50°54' W 001°25'0 0.0
2019-May-19 05:58N 50°54' W 001°25'0 0.0
2019-May-19 05:30N 50°54' W 001°25'0 0.0
2019-May-19 05:00N 50°54' W 001°25'6524.4
2019-May-19 05:00N 50°48' W 001°24'612.4 070 / 31009.7 5.4 13.8 15.2
2019-May-19 04:31N 50°54' W 001°25'2 3.5
2019-May-19 04:01N 50°53' W 001°23'5 9.6
2019-May-19 03:31N 50°49' W 001°18'4 8.3
2019-May-19 03:01N 50°46' W 001°14'815.3
2019-May-19 02:31N 50°44' W 001°02'612.7
2019-May-19 02:00N 50°40' W 000°54'510.7
2019-May-19 01:30N 50°38' W 000°46'714.5
2019-May-19 01:00N 50°37' W 000°35'714.4
2019-May-19 00:30N 50°35' W 000°24'714.6
2019-May-19 00:00N 50°34' W 000°13'814.5
2019-May-18 23:27N 50°33' W 000°00'3 6.0
2019-May-18 23:00N 50°30' E 000°00'8416.2 030 / 51012.5 5.4 13.0 7.912.0
2019-May-18 22:58N 50°34' E 000°11'715.2
2019-May-18 22:29N 50°35' E 000°22'816.1
2019-May-18 22:00N 50°38' E 000°34'1019.3
2019-May-18 21:31N 50°43' E 000°46'1019.6
2019-May-18 21:01N 50°48' E 000°59'1020.5
2019-May-18 20:30N 50°55' E 001°11'1122.1
2019-May-18 20:00N 51°03' E 001°25'5299.9
2019-May-18 20:00N 51°00' E 001°18'1735.0 060 / 81008.8 2.2 11.8 9.412.6
2019-May-18 19:31N 51°10' E 001°40'1223.4
2019-May-18 19:01N 51°20' E 001°50'1122.3
2019-May-18 18:31N 51°29' E 002°01'1121.8
2019-May-18 18:01N 51°37' E 002°13'4240.8
2019-May-18 18:00N 51°36' E 002°06'1429.1 070 / 91008.3 5.4 12.3 12.5
2019-May-18 17:31N 51°45' E 002°24'1020.6
2019-May-18 17:00N 51°52' E 002°35'1019.3
2019-May-18 16:30N 52°02' E 002°38'1019.4
2019-May-18 16:01N 52°12' E 002°37'1019.0
2019-May-18 15:31N 52°21' E 002°38'918.8
2019-May-18 15:01N 52°30' E 002°38'918.7
2019-May-18 14:31N 52°40' E 002°38'918.6
2019-May-18 14:00N 52°49' E 002°38'298.8
2019-May-18 14:00N 52°48' E 002°36'1121.7 240 / 71011.5 2.2 11.0 9.812.0
2019-May-18 13:30N 52°58' E 002°38'918.3
2019-May-18 13:01N 53°07' E 002°36'918.9
2019-May-18 12:31N 53°16' E 002°28'918.7
2019-May-18 12:01N 53°25' E 002°27'1319.1
2019-May-18 11:20N 53°38' E 002°23'6218.5
2019-May-18 08:00N 54°36' E 001°48'7619.0 080 / 171007.1 1.1 9.8 9.111.3
2019-May-18 04:00N 55°48' E 001°06'4422.0 100 / 81008.5 2.2 9.3 11.0
2019-May-18 02:00N 56°30' E 000°42'12822.4 070 / 271013.5 5.4 8.0 7.211.0
2019-May-17 20:18N 58°32' W 000°28'413.3
2019-May-17 20:00N 58°36' W 000°30'1027.5 050 / 171018.110.8 10.1 8.611.7
2019-May-17 19:38N 58°45' W 000°34'2520.8
2019-May-17 18:27N 59°10' W 000°44'1220.5
2019-May-17 17:54N 59°21' W 000°49'1517.1
2019-May-17 17:00N 59°36' W 000°54'31 6.1 030 / 131020.1 0.3 8.8 11.1
2019-May-17 12:00N 60°06' W 001°06'0 0.0 050 / 111026.5 5.4 11.0 5.410.0
2019-May-17 10:00N 60°06' W 001°06'18 3.0 030 / 161023.110.8 14.8 10.3
2019-May-17 04:00N 59°48' W 001°12'6616.4 110 / 201024.5 5.4 9.0 9.9
2019-May-17 00:00N 60°06' W 003°18'3525.4 150 / 271027.010.8 9.0 7.511.0
2019-May-16 22:37N 60°14' W 004°26'219.4
2019-May-16 22:30N 60°15' W 004°30'919.0
2019-May-16 22:01N 60°19' W 004°48'3517.1
2019-May-16 20:00N 60°30' W 005°54'5919.6 130 / 301021.7 5.4 9.1 7.310.7
2019-May-16 17:00N 60°48' W 007°48'9418.8 120 / 251020.8 5.4 9.3 10.4
2019-May-16 12:00N 61°24' W 010°48'6220.6 130 / 201024.4 2.2 9.0 7.810.0
2019-May-16 09:00N 61°48' W 012°48'5718.8 110 / 201020.4 5.4 9.8 7.810.1
2019-May-16 06:00N 62°06' W 014°42'9924.6 150 / 231019.0 5.4 8.6 9.7
2019-May-16 02:00N 62°42' W 018°00'7719.3 170 / 321019.5 0.5 8.0 7.3 9.0
2019-May-15 22:00N 63°12' W 020°36'5618.8 110 / 281014.4 2.2 8.1 7.3 9.3
2019-May-15 19:00N 63°36' W 022°30'35 5.0 120 / 251014.1 2.2 7.9 8.7
2019-May-15 12:00N 64°06' W 021°48'0 0.0 090 / 221020.4 5.4 8.0 5.0 8.0
2019-May-15 09:00N 64°06' W 021°48'0 0.0 100 / 241016.1 5.4 8.0 6.2 8.4
2019-May-15 07:00N 64°06' W 021°48'0 0.0 100 / 211016.0 5.4 8.2 8.2
2019-May-15 03:00N 64°06' W 021°48'0 0.0 100 / 221018.5 5.4 8.0 4.5 8.0
2019-May-14 21:00N 64°06' W 021°48'0 0.0 130 / 211017.610.8 11.5 7.9
2019-May-14 18:00N 64°06' W 021°48'0 0.0 120 / 321017.6 5.4 10.8 7.8
2019-May-14 13:00N 64°06' W 021°48'36 9.0 120 / 191022.510.8 14.0 4.4 7.0
2019-May-14 09:00N 64°24' W 023°00'4522.4 160 / 341020.5 5.4 8.6 6.3 8.4
2019-May-14 07:00N 64°54' W 024°18'8013.3 120 / 201019.9 5.4 8.2 7.8
2019-May-14 01:00N 66°12' W 023°36'5819.4 250 / 191022.5 5.4 6.0 4.9 6.0
2019-May-13 22:00N 66°30' W 021°18'7424.6 200 / 81017.410.8 5.4 3.9 6.7
2019-May-13 19:00N 66°06' W 018°24'32 4.5 150 / 21015.510.8 8.6 6.1
2019-May-13 12:00N 65°36' W 018°00'0 0.0 170 / 101020.510.8 4.0 1.8 6.0
2019-May-13 10:00N 65°36' W 018°00'36 6.1 170 / 111020.410.8 3.3 0.7 6.0
2019-May-13 04:00N 66°12' W 018°12'4916.5 110 / 231025.1 5.4 2.6 5.7
2019-May-13 01:00N 66°36' W 016°24'6716.8 150 / 61031.510.8 2.0-2.8 4.0
2019-May-12 21:00N 66°06' W 013°54'4515.1 280 / 61030.210.8 2.6-2.6 5.0
2019-May-12 18:00N 65°24' W 013°12'2422.1 020 / 111030.810.8 5.7 5.3
2019-May-12 16:54N 65°00' W 013°00'717.2
2019-May-12 16:28N 64°53' W 012°56'817.4
2019-May-12 16:00N 64°45' W 012°51'917.5
2019-May-12 15:29N 64°37' W 012°45'2013.2
2019-May-12 14:00N 64°18' W 012°30'9318.6 230 / 111034.610.8 5.0-2.5 8.0
2019-May-12 09:00N 62°48' W 011°36'8120.3 220 / 141031.510.8 4.5-0.9 9.2
2019-May-12 05:00N 61°30' W 010°48'10024.9 080 / 121031.7 5.4 6.5 9.9
2019-May-12 01:00N 59°54' W 009°54'9318.7 260 / 181033.610.8 6.0 1.610.0
2019-May-11 20:00N 58°24' W 009°06'5618.8 280 / 91030.810.8 6.6-2.211.2
2019-May-11 17:00N 57°30' W 008°36'5719.1 350 / 121029.6 5.4 10.2 11.1
2019-May-11 14:00N 56°36' W 008°00'4912.4 340 / 91030.510.8 9.0 2.210.0
2019-May-11 10:01N 55°57' W 007°05'220.9
2019-May-11 09:56N 55°56' W 007°03'920.9
2019-May-11 09:30N 55°49' W 006°53'1121.3
2019-May-11 09:00N 55°40' W 006°42'1122.0
2019-May-11 08:30N 55°32' W 006°28'1122.3
2019-May-11 08:01N 55°26' W 006°13'4210.4
2019-May-11 08:00N 55°24' W 006°18'2323.6 340 / 161021.910.8 7.3 2.710.3
2019-May-11 07:01N 55°10' W 005°46'1122.4
2019-May-11 06:31N 54°60' W 005°36'1122.2
2019-May-11 06:00N 54°50' W 005°28'1122.0
2019-May-11 05:30N 54°40' W 005°21'1121.7
2019-May-11 05:00N 54°29' W 005°17'6563.3
2019-May-11 05:00N 54°24' W 005°12'612.9 330 / 251017.9 5.4 10.1 10.5
2019-May-11 04:30N 54°19' W 005°19'1121.3
2019-May-11 03:58N 54°09' W 005°26'1020.3
2019-May-11 03:30N 53°60' W 005°33'1021.1
2019-May-11 03:00N 53°50' W 005°40'1121.1
2019-May-11 02:29N 53°40' W 005°47'2516.6
2019-May-11 01:00N 53°18' W 006°06'4 0.9 330 / 71018.510.8 7.0 3.5 8.0
2019-May-10 21:00N 53°18' W 006°12'0 0.0 020 / 21012.110.8 8.8 4.912.3
2019-May-10 17:00N 53°18' W 006°12'0 0.0 130 / 61009.3 5.4 11.3 12.2
2019-May-10 10:00N 53°18' W 006°12'   270 / 41008.010.8 12.4 2.812.1
Track history (hours):
 
Tides and Currents Weather Stations Pressure Air Temp Water Temp Dewpoint Dewpoint Depression Visibility Wind Speed Wind Dir Waves Ship Positions

Celebrity Silhouette

Last reported at 2019-May-20 10:00 UTC. Time now 2019-May-20 16:48 UTC.
Position N 54°12' E 004°48'.

Length 318 m; draft 8.6 m.

Type: Passenger vessel. MMSI: 248939000.

Wind from 320 at 23 knots

Barometer 1012.5 mb
Air temperature 10.0 ° C
Visibility: greater than 5.4 NM
Dewpoint 9.3 ° C
Water temperature 12.0 ° C

Date/timePositionNaut miles runAvg speedWind from/ knotsBaromVisibWave heightAir tempDewpointWater temp
2019-May-20 10:00N 54°12' E 004°48'3919.4 320 / 231012.5 5.4 10.0 9.312.0
2019-May-20 08:00N 53°42' E 004°06'2622.3 350 / 251009.3 0.1 10.0 7.911.0
2019-May-20 06:49N 53°21' E 003°38'620.0
2019-May-20 06:30N 53°16' E 003°34'1020.0
2019-May-20 06:00N 53°07' E 003°28'1020.3
2019-May-20 05:30N 52°57' E 003°22'1020.6
2019-May-20 05:01N 52°48' E 003°16'1120.7
2019-May-20 04:30N 52°38' E 003°07'1021.1
2019-May-20 04:00N 52°29' E 002°59'3193.9
2019-May-20 04:00N 52°30' E 002°54'1021.6 340 / 241009.6 2.2 9.0 12.1
2019-May-20 03:30N 52°20' E 002°50'1121.7
2019-May-20 03:00N 52°10' E 002°42'1121.5
2019-May-20 02:31N 51°60' E 002°39'1121.3
2019-May-20 02:00N 51°49' E 002°37'1221.5
2019-May-20 01:28N 51°40' E 002°26'1021.5
2019-May-20 01:01N 51°32' E 002°15'1121.7
2019-May-20 00:31N 51°24' E 002°04'1122.0
2019-May-20 00:01N 51°16' E 001°52'12712.5
2019-May-20 00:00N 51°06' E 001°42'1 2.5 010 / 111014.510.8 10.0 8.513.0
2019-May-19 23:31N 51°07' E 001°42'1122.2
2019-May-19 23:01N 50°58' E 001°31'1121.5
2019-May-19 22:30N 50°49' E 001°24'1120.8
2019-May-19 22:00N 50°40' E 001°15'1121.5
2019-May-19 21:29N 50°33' E 001°01'1121.6
2019-May-19 20:59N 50°29' E 000°45'2424.0
2019-May-19 20:00N 50°18' E 000°12'5258.2 300 / 51012.0 2.2 12.0 8.912.7
2019-May-19 19:58N 50°23' E 000°11'1021.3
2019-May-19 19:30N 50°22' W 000°05'1221.7
2019-May-19 18:58N 50°28' W 000°20'1021.3
2019-May-19 18:30N 50°32' W 000°34'1121.1
2019-May-19 18:00N 50°38' W 000°48'4299.6
2019-May-19 18:00N 50°36' W 000°42'1225.5 250 / 161014.5 5.4 13.3 13.4
2019-May-19 17:30N 50°42' W 000°59'714.5
2019-May-19 17:00N 50°46' W 001°09'612.6
2019-May-19 16:30N 50°48' W 001°18'4 8.7
2019-May-19 16:00N 50°52' W 001°22'3 6.3
2019-May-19 15:30N 50°54' W 001°25'0 0.0
2019-May-19 15:00N 50°54' W 001°25'0 0.0
2019-May-19 14:30N 50°54' W 001°25'0 0.0
2019-May-19 13:54N 50°54' W 001°25'0 0.0
2019-May-19 13:30N 50°54' W 001°25'0 0.0
2019-May-19 13:00N 50°54' W 001°25'0 0.0
2019-May-19 12:30N 50°54' W 001°25'0 0.0
2019-May-19 12:00N 50°54' W 001°25'0 0.0
2019-May-19 11:30N 50°54' W 001°25'611.7
2019-May-19 11:00N 50°48' W 001°24'6159.3 060 / 91013.5 16.0 7.515.0
2019-May-19 10:57N 50°54' W 001°25'0 0.0
2019-May-19 10:30N 50°54' W 001°25'0 0.0
2019-May-19 10:00N 50°54' W 001°25'040.0
2019-May-19 10:00N 50°54' W 001°24'0 1.0 020 / 71010.310.8 16.6 9.515.3
2019-May-19 09:30N 50°54' W 001°25'0 0.0
2019-May-19 08:57N 50°54' W 001°25'0 0.0
2019-May-19 08:29N 50°54' W 001°25'0 0.0
2019-May-19 07:59N 50°54' W 001°25'0 0.0
2019-May-19 07:26N 50°54' W 001°25'0 0.0
2019-May-19 06:58N 50°54' W 001°25'0 0.0
2019-May-19 06:28N 50°54' W 001°25'0 0.0
2019-May-19 05:58N 50°54' W 001°25'0 0.0
2019-May-19 05:30N 50°54' W 001°25'0 0.0
2019-May-19 05:00N 50°54' W 001°25'6524.4
2019-May-19 05:00N 50°48' W 001°24'612.4 070 / 31009.7 5.4 13.8 15.2
2019-May-19 04:31N 50°54' W 001°25'2 3.5
2019-May-19 04:01N 50°53' W 001°23'5 9.6
2019-May-19 03:31N 50°49' W 001°18'4 8.3
2019-May-19 03:01N 50°46' W 001°14'815.3
2019-May-19 02:31N 50°44' W 001°02'612.7
2019-May-19 02:00N 50°40' W 000°54'510.7
2019-May-19 01:30N 50°38' W 000°46'714.5
2019-May-19 01:00N 50°37' W 000°35'714.4
2019-May-19 00:30N 50°35' W 000°24'714.6
2019-May-19 00:00N 50°34' W 000°13'814.5
2019-May-18 23:27N 50°33' W 000°00'3 6.0
2019-May-18 23:00N 50°30' E 000°00'8416.2 030 / 51012.5 5.4 13.0 7.912.0
2019-May-18 22:58N 50°34' E 000°11'715.2
2019-May-18 22:29N 50°35' E 000°22'816.1
2019-May-18 22:00N 50°38' E 000°34'1019.3
2019-May-18 21:31N 50°43' E 000°46'1019.6
2019-May-18 21:01N 50°48' E 000°59'1020.5
2019-May-18 20:30N 50°55' E 001°11'1122.1
2019-May-18 20:00N 51°03' E 001°25'5299.9
2019-May-18 20:00N 51°00' E 001°18'1735.0 060 / 81008.8 2.2 11.8 9.412.6
2019-May-18 19:31N 51°10' E 001°40'1223.4
2019-May-18 19:01N 51°20' E 001°50'1122.3
2019-May-18 18:31N 51°29' E 002°01'1121.8
2019-May-18 18:01N 51°37' E 002°13'4240.8
2019-May-18 18:00N 51°36' E 002°06'1429.1 070 / 91008.3 5.4 12.3 12.5
2019-May-18 17:31N 51°45' E 002°24'1020.6
2019-May-18 17:00N 51°52' E 002°35'1019.3
2019-May-18 16:30N 52°02' E 002°38'1019.4
2019-May-18 16:01N 52°12' E 002°37'1019.0
2019-May-18 15:31N 52°21' E 002°38'918.8
2019-May-18 15:01N 52°30' E 002°38'918.7
2019-May-18 14:31N 52°40' E 002°38'918.6
2019-May-18 14:00N 52°49' E 002°38'298.8
2019-May-18 14:00N 52°48' E 002°36'1121.7 240 / 71011.5 2.2 11.0 9.812.0
2019-May-18 13:30N 52°58' E 002°38'918.3
2019-May-18 13:01N 53°07' E 002°36'918.9
2019-May-18 12:31N 53°16' E 002°28'918.7
2019-May-18 12:01N 53°25' E 002°27'1319.1
2019-May-18 11:20N 53°38' E 002°23'6218.5
2019-May-18 08:00N 54°36' E 001°48'7619.0 080 / 171007.1 1.1 9.8 9.111.3
2019-May-18 04:00N 55°48' E 001°06'4422.0 100 / 81008.5 2.2 9.3 11.0
2019-May-18 02:00N 56°30' E 000°42'12822.4 070 / 271013.5 5.4 8.0 7.211.0
2019-May-17 20:18N 58°32' W 000°28'413.3
2019-May-17 20:00N 58°36' W 000°30'1027.5 050 / 171018.110.8 10.1 8.611.7
2019-May-17 19:38N 58°45' W 000°34'2520.8
2019-May-17 18:27N 59°10' W 000°44'1220.5
2019-May-17 17:54N 59°21' W 000°49'1517.1
2019-May-17 17:00N 59°36' W 000°54'31 6.1 030 / 131020.1 0.3 8.8 11.1
2019-May-17 12:00N 60°06' W 001°06'0 0.0 050 / 111026.5 5.4 11.0 5.410.0
2019-May-17 10:00N 60°06' W 001°06'18 3.0 030 / 161023.110.8 14.8 10.3
2019-May-17 04:00N 59°48' W 001°12'6616.4 110 / 201024.5 5.4 9.0 9.9
2019-May-17 00:00N 60°06' W 003°18'3525.4 150 / 271027.010.8 9.0 7.511.0
2019-May-16 22:37N 60°14' W 004°26'219.4
2019-May-16 22:30N 60°15' W 004°30'919.0
2019-May-16 22:01N 60°19' W 004°48'3517.1
2019-May-16 20:00N 60°30' W 005°54'5919.6 130 / 301021.7 5.4 9.1 7.310.7
2019-May-16 17:00N 60°48' W 007°48'9418.8 120 / 251020.8 5.4 9.3 10.4
2019-May-16 12:00N 61°24' W 010°48'6220.6 130 / 201024.4 2.2 9.0 7.810.0
2019-May-16 09:00N 61°48' W 012°48'5718.8 110 / 201020.4 5.4 9.8 7.810.1
2019-May-16 06:00N 62°06' W 014°42'9924.6 150 / 231019.0 5.4 8.6 9.7
2019-May-16 02:00N 62°42' W 018°00'7719.3 170 / 321019.5 0.5 8.0 7.3 9.0
2019-May-15 22:00N 63°12' W 020°36'5618.8 110 / 281014.4 2.2 8.1 7.3 9.3
2019-May-15 19:00N 63°36' W 022°30'35 5.0 120 / 251014.1 2.2 7.9 8.7
2019-May-15 12:00N 64°06' W 021°48'0 0.0 090 / 221020.4 5.4 8.0 5.0 8.0
2019-May-15 09:00N 64°06' W 021°48'0 0.0 100 / 241016.1 5.4 8.0 6.2 8.4
2019-May-15 07:00N 64°06' W 021°48'0 0.0 100 / 211016.0 5.4 8.2 8.2
2019-May-15 03:00N 64°06' W 021°48'0 0.0 100 / 221018.5 5.4 8.0 4.5 8.0
2019-May-14 21:00N 64°06' W 021°48'0 0.0 130 / 211017.610.8 11.5 7.9
2019-May-14 18:00N 64°06' W 021°48'0 0.0 120 / 321017.6 5.4 10.8 7.8
2019-May-14 13:00N 64°06' W 021°48'36 9.0 120 / 191022.510.8 14.0 4.4 7.0
2019-May-14 09:00N 64°24' W 023°00'4522.4 160 / 341020.5 5.4 8.6 6.3 8.4
2019-May-14 07:00N 64°54' W 024°18'8013.3 120 / 201019.9 5.4 8.2 7.8
2019-May-14 01:00N 66°12' W 023°36'5819.4 250 / 191022.5 5.4 6.0 4.9 6.0
2019-May-13 22:00N 66°30' W 021°18'7424.6 200 / 81017.410.8 5.4 3.9 6.7
2019-May-13 19:00N 66°06' W 018°24'32 4.5 150 / 21015.510.8 8.6 6.1
2019-May-13 12:00N 65°36' W 018°00'0 0.0 170 / 101020.510.8 4.0 1.8 6.0
2019-May-13 10:00N 65°36' W 018°00'36 6.1 170 / 111020.410.8 3.3 0.7 6.0
2019-May-13 04:00N 66°12' W 018°12'4916.5 110 / 231025.1 5.4 2.6 5.7
2019-May-13 01:00N 66°36' W 016°24'6716.8 150 / 61031.510.8 2.0-2.8 4.0
2019-May-12 21:00N 66°06' W 013°54'4515.1 280 / 61030.210.8 2.6-2.6 5.0
2019-May-12 18:00N 65°24' W 013°12'2422.1 020 / 111030.810.8 5.7 5.3
2019-May-12 16:54N 65°00' W 013°00'717.2
2019-May-12 16:28N 64°53' W 012°56'817.4
2019-May-12 16:00N 64°45' W 012°51'917.5
2019-May-12 15:29N 64°37' W 012°45'2013.2
2019-May-12 14:00N 64°18' W 012°30'9318.6 230 / 111034.610.8 5.0-2.5 8.0
2019-May-12 09:00N 62°48' W 011°36'8120.3 220 / 141031.510.8 4.5-0.9 9.2
2019-May-12 05:00N 61°30' W 010°48'10024.9 080 / 121031.7 5.4 6.5 9.9
2019-May-12 01:00N 59°54' W 009°54'9318.7 260 / 181033.610.8 6.0 1.610.0
2019-May-11 20:00N 58°24' W 009°06'5618.8 280 / 91030.810.8 6.6-2.211.2
2019-May-11 17:00N 57°30' W 008°36'5719.1 350 / 121029.6 5.4 10.2 11.1
2019-May-11 14:00N 56°36' W 008°00'4912.4 340 / 91030.510.8 9.0 2.210.0
2019-May-11 10:01N 55°57' W 007°05'220.9
2019-May-11 09:56N 55°56' W 007°03'920.9
2019-May-11 09:30N 55°49' W 006°53'1121.3
2019-May-11 09:00N 55°40' W 006°42'1122.0
2019-May-11 08:30N 55°32' W 006°28'1122.3
2019-May-11 08:01N 55°26' W 006°13'4210.4
2019-May-11 08:00N 55°24' W 006°18'2323.6 340 / 161021.910.8 7.3 2.710.3
2019-May-11 07:01N 55°10' W 005°46'1122.4
2019-May-11 06:31N 54°60' W 005°36'1122.2
2019-May-11 06:00N 54°50' W 005°28'1122.0
2019-May-11 05:30N 54°40' W 005°21'1121.7
2019-May-11 05:00N 54°29' W 005°17'6563.3
2019-May-11 05:00N 54°24' W 005°12'612.9 330 / 251017.9 5.4 10.1 10.5
2019-May-11 04:30N 54°19' W 005°19'1121.3
2019-May-11 03:58N 54°09' W 005°26'1020.3
2019-May-11 03:30N 53°60' W 005°33'1021.1
2019-May-11 03:00N 53°50' W 005°40'1121.1
2019-May-11 02:29N 53°40' W 005°47'2516.6
2019-May-11 01:00N 53°18' W 006°06'4 0.9 330 / 71018.510.8 7.0 3.5 8.0
2019-May-10 21:00N 53°18' W 006°12'0 0.0 020 / 21012.110.8 8.8 4.912.3
2019-May-10 17:00N 53°18' W 006°12'0 0.0 130 / 61009.3 5.4 11.3 12.2
2019-May-10 10:00N 53°18' W 006°12'   270 / 41008.010.8 12.4 2.812.1

Dump ship's entire track history